Map

Track Data

SID SEASON NUMBER BASIN SUBBASIN NAME ISO_TIME NATURE LAT LON WMO_WIND WMO_PRES WMO_AGENCY TRACK_TYPE DIST2LAND LANDFALL IFLAG USA_AGENCY USA_ATCF_ID USA_LAT USA_LON USA_RECORD USA_STATUS USA_WIND USA_PRES USA_SSHS USA_R34_NE USA_R34_SE USA_R34_SW USA_R34_NW USA_R50_NE USA_R50_SE USA_R50_SW USA_R50_NW USA_R64_NE USA_R64_SE USA_R64_SW USA_R64_NW USA_POCI USA_ROCI USA_RMW USA_EYE TOKYO_LAT TOKYO_LON TOKYO_GRADE TOKYO_WIND TOKYO_PRES TOKYO_R50_DIR TOKYO_R50_LONG TOKYO_R50_SHORT TOKYO_R30_DIR TOKYO_R30_LONG TOKYO_R30_SHORT TOKYO_LAND CMA_LAT CMA_LON CMA_CAT CMA_WIND CMA_PRES HKO_LAT HKO_LON HKO_CAT HKO_WIND HKO_PRES NEWDELHI_LAT NEWDELHI_LON NEWDELHI_GRADE NEWDELHI_WIND NEWDELHI_PRES NEWDELHI_CI NEWDELHI_DP NEWDELHI_POCI REUNION_LAT REUNION_LON REUNION_TYPE REUNION_WIND REUNION_PRES REUNION_TNUM REUNION_CI REUNION_RMW REUNION_R34_NE REUNION_R34_SE REUNION_R34_SW REUNION_R34_NW REUNION_R50_NE REUNION_R50_SE REUNION_R50_SW REUNION_R50_NW REUNION_R64_NE REUNION_R64_SE REUNION_R64_SW REUNION_R64_NW BOM_LAT BOM_LON BOM_TYPE BOM_WIND BOM_PRES BOM_TNUM BOM_CI BOM_RMW BOM_R34_NE BOM_R34_SE BOM_R34_SW BOM_R34_NW BOM_R50_NE BOM_R50_SE BOM_R50_SW BOM_R50_NW BOM_R64_NE BOM_R64_SE BOM_R64_SW BOM_R64_NW BOM_ROCI BOM_POCI BOM_EYE BOM_POS_METHOD BOM_PRES_METHOD NADI_LAT NADI_LON NADI_CAT NADI_WIND NADI_PRES WELLINGTON_LAT WELLINGTON_LON WELLINGTON_WIND WELLINGTON_PRES DS824_LAT DS824_LON DS824_STAGE DS824_WIND DS824_PRES TD9636_LAT TD9636_LON TD9636_STAGE TD9636_WIND TD9636_PRES TD9635_LAT TD9635_LON TD9635_WIND TD9635_PRES TD9635_ROCI NEUMANN_LAT NEUMANN_LON NEUMANN_CLASS NEUMANN_WIND NEUMANN_PRES MLC_LAT MLC_LON MLC_CLASS MLC_WIND MLC_PRES USA_GUST BOM_GUST BOM_GUST_PER REUNION_GUST REUNION_GUST_PER USA_SEAHGT USA_SEARAD_NE USA_SEARAD_SE USA_SEARAD_SW USA_SEARAD_NW STORM_SPEED STORM_DIR
1960243N10337 1960 62 NA NA DONNA 1960-08-29 18:00:00 TS 10.2000 -22.8000 25 hurdat_atl main 699 699 O_____________ hurdat_atl AL051960 10.2000 -22.8000 TD 25 -1 14 264
1960243N10337 1960 62 NA NA DONNA 1960-08-29 21:00:00 TS 10.1304 -23.5126 main 775 775 P_____________ AL051960 10.1304 -23.5126 TD 25 -1 14 266
1960243N10337 1960 62 NA NA DONNA 1960-08-30 00:00:00 TS 10.1000 -24.2000 25 hurdat_atl main 847 847 O_____________ hurdat_atl AL051960 10.1000 -24.2000 TD 25 -1 13 270
1960243N10337 1960 62 NA NA DONNA 1960-08-30 03:00:00 TS 10.1348 -24.8499 main 910 910 P_____________ AL051960 10.1348 -24.8499 TD 25 -1 13 274
1960243N10337 1960 62 NA NA DONNA 1960-08-30 06:00:00 TS 10.2000 -25.5000 25 hurdat_atl main 980 980 O_____________ hurdat_atl AL051960 10.2000 -25.5000 TD 25 -1 13 275
1960243N10337 1960 62 NA NA DONNA 1960-08-30 09:00:00 TS 10.2423 -26.1851 main 1054 1054 P_____________ AL051960 10.2423 -26.1851 TD 25 -1 14 274
1960243N10337 1960 62 NA NA DONNA 1960-08-30 12:00:00 TS 10.3000 -26.9000 25 hurdat_atl main 1126 1126 O_____________ hurdat_atl AL051960 10.3000 -26.9000 TD 25 -1 14 276
1960243N10337 1960 62 NA NA DONNA 1960-08-30 15:00:00 TS 10.3923 -27.6350 main 1197 1197 P_____________ AL051960 10.3923 -27.6350 TD 25 -1 15 278
1960243N10337 1960 62 NA NA DONNA 1960-08-30 18:00:00 TS 10.5000 -28.4000 25 hurdat_atl main 1273 1273 O_____________ hurdat_atl AL051960 10.5000 -28.4000 TD 25 -1 15 278
1960243N10337 1960 62 NA NA DONNA 1960-08-30 21:00:00 TS 10.5999 -29.1925 main 1350 1350 P_____________ AL051960 10.5999 -29.1925 TD 27 -1 16 277
1960243N10337 1960 62 NA NA DONNA 1960-08-31 00:00:00 TS 10.7000 -30.0000 30 hurdat_atl main 1428 1428 O_____________ hurdat_atl AL051960 10.7000 -30.0000 TD 30 -1 16 277
1960243N10337 1960 62 NA NA DONNA 1960-08-31 03:00:00 TS 10.7999 -30.8075 main 1507 1507 P_____________ AL051960 10.7999 -30.8075 TD 30 -1 16 277
1960243N10337 1960 62 NA NA DONNA 1960-08-31 06:00:00 TS 10.9000 -31.6000 30 hurdat_atl main 1587 1587 O_____________ hurdat_atl AL051960 10.9000 -31.6000 TD 30 -1 15 277
1960243N10337 1960 62 NA NA DONNA 1960-08-31 09:00:00 TS 10.9923 -32.3576 main 1668 1668 P_____________ AL051960 10.9923 -32.3576 TD 32 -1 15 278
1960243N10337 1960 62 NA NA DONNA 1960-08-31 12:00:00 TS 11.1000 -33.1000 35 hurdat_atl main 1735 1713 O_____________ hurdat_atl AL051960 11.1000 -33.1000 TS 35 0 15 280
1960243N10337 1960 62 NA NA DONNA 1960-08-31 15:00:00 TS 11.2423 -33.8425 main 1713 1702 P_____________ AL051960 11.2423 -33.8425 TS 35 0 15 282
1960243N10337 1960 62 NA NA DONNA 1960-08-31 18:00:00 TS 11.4000 -34.6000 35 hurdat_atl main 1702 1688 O_____________ hurdat_atl AL051960 11.4000 -34.6000 TS 35 0 16 281
1960243N10337 1960 62 NA NA DONNA 1960-08-31 21:00:00 TS 11.5498 -35.3926 main 1685 1681 P_____________ AL051960 11.5498 -35.3926 TS 37 0 16 281
1960243N10337 1960 62 NA NA DONNA 1960-09-01 00:00:00 TS 11.7000 -36.2000 40 hurdat_atl main 1683 1675 O_____________ hurdat_atl AL051960 11.7000 -36.2000 TS 40 0 16 281
1960243N10337 1960 62 NA NA DONNA 1960-09-01 03:00:00 TS 11.8498 -37.0001 main 1675 1675 P_____________ AL051960 11.8498 -37.0001 TS 45 0 16 281
1960243N10337 1960 62 NA NA DONNA 1960-09-01 06:00:00 TS 12.0000 -37.8000 50 hurdat_atl main 1684 1657 O_____________ hurdat_atl AL051960 12.0000 -37.8000 TS 50 0 16 281
1960243N10337 1960 62 NA NA DONNA 1960-09-01 09:00:00 TS 12.1497 -38.5926 main 1648 1586 P_____________ AL051960 12.1497 -38.5926 TS 52 0 16 281
1960243N10337 1960 62 NA NA DONNA 1960-09-01 12:00:00 TS 12.3000 -39.4000 55 hurdat_atl main 1586 1521 O_____________ hurdat_atl AL051960 12.3000 -39.4000 TS 55 0 16 281
1960243N10337 1960 62 NA NA DONNA 1960-09-01 15:00:00 TS 12.4498 -40.2426 main 1521 1457 P_____________ AL051960 12.4498 -40.2426 TS 60 0 17 280
1960243N10337 1960 62 NA NA DONNA 1960-09-01 18:00:00 TS 12.6000 -41.1000 65 hurdat_atl main 1457 1397 O_____________ hurdat_atl AL051960 12.6000 -41.1000 HU 65 1 17 280
1960243N10337 1960 62 NA NA DONNA 1960-09-01 21:00:00 TS 12.7424 -41.9651 main 1389 1342 P_____________ AL051960 12.7424 -41.9651 HU 67 1 17 280
1960243N10337 1960 62 NA NA DONNA 1960-09-02 00:00:00 TS 12.9000 -42.8000 70 hurdat_atl main 1342 1305 O_____________ hurdat_atl AL051960 12.9000 -42.8000 HU 70 1 16 283
1960243N10337 1960 62 NA NA DONNA 1960-09-02 03:00:00 TS 13.0996 -43.5650 main 1299 1267 P_____________ AL051960 13.0996 -43.5650 HU 72 1 15 285
1960243N10337 1960 62 NA NA DONNA 1960-09-02 06:00:00 TS 13.3000 -44.3000 75 hurdat_atl main 1267 1232 O_____________ hurdat_atl AL051960 13.3000 -44.3000 HU 75 1 15 284
1960243N10337 1960 62 NA NA DONNA 1960-09-02 09:00:00 TS 13.4571 -45.0277 main 1241 1200 P_____________ AL051960 13.4571 -45.0277 HU 80 1 15 282
1960243N10337 1960 62 NA NA DONNA 1960-09-02 12:00:00 TS 13.6000 -45.8000 85 hurdat_atl main 1200 1157 O_____________ hurdat_atl AL051960 13.6000 -45.8000 HU 85 2 16 280
1960243N10337 1960 62 NA NA DONNA 1960-09-02 15:00:00 TS 13.7424 -46.6777 main 1151 1123 P_____________ AL051960 13.7424 -46.6777 HU 90 2 18 280
1960243N10337 1960 62 NA NA DONNA 1960-09-02 18:00:00 TS 13.9000 -47.6000 95 973 hurdat_atl main 1118 1092 O_____________ hurdat_atl AL051960 13.9000 -47.6000 HU 95 973 2 18 281
1960243N10337 1960 62 NA NA DONNA 1960-09-02 21:00:00 TS 14.0922 -48.5001 main 1092 1072 P_____________ AL051960 14.0922 -48.5001 HU 97 3 18 283
1960243N10337 1960 62 NA NA DONNA 1960-09-03 00:00:00 TS 14.3000 -49.4000 100 hurdat_atl main 1074 1052 O_____________ hurdat_atl AL051960 14.3000 -49.4000 HU 100 3 18 283
1960243N10337 1960 62 NA NA DONNA 1960-09-03 03:00:00 TS 14.4846 -50.2929 main 1053 1035 P_____________ AL051960 14.4846 -50.2929 HU 102 3 18 283
1960243N10337 1960 62 NA NA DONNA 1960-09-03 06:00:00 TS 14.7000 -51.2000 105 hurdat_atl main 1038 1032 O_____________ hurdat_atl AL051960 14.7000 -51.2000 HU 105 3 19 286
1960243N10337 1960 62 NA NA DONNA 1960-09-03 09:00:00 TS 14.9847 -52.1426 main 1044 1008 P_____________ AL051960 14.9847 -52.1426 HU 105 3 19 288
1960243N10337 1960 62 NA NA DONNA 1960-09-03 12:00:00 TS 15.3000 -53.1000 105 962 hurdat_atl main 999 935 O_____________ hurdat_atl AL051960 15.3000 -53.1000 HU 105 962 3 20 288
1960243N10337 1960 62 NA NA DONNA 1960-09-03 15:00:00 TS 15.6074 -54.0726 main 927 872 P_____________ AL051960 15.6074 -54.0726 HU 105 3 19 288
1960243N10337 1960 62 NA NA DONNA 1960-09-03 18:00:00 TS 15.9000 -55.0000 105 hurdat_atl main 872 833 O_____________ hurdat_atl AL051960 15.9000 -55.0000 HU 105 3 18 289
1960243N10337 1960 62 NA NA DONNA 1960-09-03 21:00:00 TS 16.1794 -55.8226 main 833 795 P_____________ AL051960 16.1794 -55.8226 HU 107 3 16 288
1960243N10337 1960 62 NA NA DONNA 1960-09-04 00:00:00 TS 16.4000 -56.6000 110 hurdat_atl main 795 757 O_____________ hurdat_atl AL051960 16.4000 -56.6000 HU 110 3 16 282
1960243N10337 1960 62 NA NA DONNA 1960-09-04 03:00:00 TS 16.5148 -57.4079 main 757 726 P_____________ AL051960 16.5148 -57.4079 HU 110 3 15 277
1960243N10337 1960 62 NA NA DONNA 1960-09-04 06:00:00 TS 16.6000 -58.2000 110 hurdat_atl main 726 709 O_____________ hurdat_atl AL051960 16.6000 -58.2000 HU 110 3 15 278
1960243N10337 1960 62 NA NA DONNA 1960-09-04 09:00:00 TS 16.7274 -58.9801 main 705 642 P_____________ AL051960 16.7274 -58.9801 HU 110 3 15 282
1960243N10337 1960 62 NA NA DONNA 1960-09-04 12:00:00 TS 16.9000 -59.7000 110 958 hurdat_atl main 642 574 O_____________ hurdat_atl AL051960 16.9000 -59.7000 HU 110 958 3 13 288
1960243N10337 1960 62 NA NA DONNA 1960-09-04 15:00:00 TS 17.1399 -60.3077 main 574 505 P_____________ AL051960 17.1399 -60.3077 HU 110 957 3 13 294
1960243N10337 1960 62 NA CS DONNA 1960-09-04 18:00:00 TS 17.4000 -60.9000 110 hurdat_atl main 505 428 I_____________ hurdat_atl AL051960 17.4000 -60.9000 HU 110 957 3 13 292
1960243N10337 1960 62 NA CS DONNA 1960-09-04 21:00:00 TS 17.6360 -61.6024 main 428 405 P_____________ AL051960 17.6360 -61.6024 HU 110 956 3 14 289
1960243N10337 1960 62 NA CS DONNA 1960-09-04 22:00:00 TS 17.7000 -61.8000 110 hurdat_atl main 405 372 I_____________ hurdat_atl AL051960 17.7000 -61.8000 L HU 110 956 3 10 289
1960243N10337 1960 62 NA CS DONNA 1960-09-05 00:00:00 TS 17.8000 -62.1000 110 956 hurdat_atl main 372 307 O_____________ hurdat_atl AL051960 17.8000 -62.1000 HU 110 956 3 12 289
1960243N10337 1960 62 NA CS DONNA 1960-09-05 03:00:00 TS 18.0110 -62.7703 main 296 274 P_____________ AL051960 18.0110 -62.7703 HU 110 952 3 14 289
1960243N10337 1960 62 NA CS DONNA 1960-09-05 04:00:00 TS 18.1000 -63.0000 110 952 hurdat_atl main 274 232 O_____________ hurdat_atl AL051960 18.1000 -63.0000 L HU 110 952 3 13 296
1960243N10337 1960 62 NA CS DONNA 1960-09-05 06:00:00 TS 18.3000 -63.4000 110 952 hurdat_atl main 232 161 O_____________ hurdat_atl AL051960 18.3000 -63.4000 HU 110 952 3 14 299
1960243N10337 1960 62 NA CS DONNA 1960-09-05 09:00:00 TS 18.6899 -64.1023 main 161 115 P_____________ AL051960 18.6899 -64.1023 HU 110 955 3 16 301
1960243N10337 1960 62 NA NA DONNA 1960-09-05 12:00:00 TS 19.1000 -64.8000 110 958 hurdat_atl main 115 107 O_____________ hurdat_atl AL051960 19.1000 -64.8000 HU 110 958 3 14 302
1960243N10337 1960 62 NA NA DONNA 1960-09-05 15:00:00 TS 19.4297 -65.3528 main 113 113 P_____________ AL051960 19.4297 -65.3528 HU 110 957 3 11 302
1960243N10337 1960 62 NA NA DONNA 1960-09-05 18:00:00 TS 19.7000 -65.8000 110 956 hurdat_atl main 145 145 O_____________ hurdat_atl AL051960 19.7000 -65.8000 HU 110 956 3 9 302
1960243N10337 1960 62 NA NA DONNA 1960-09-05 21:00:00 TS 19.9071 -66.1505 main 167 167 P_____________ AL051960 19.9071 -66.1505 HU 112 948 3 8 301
1960243N10337 1960 62 NA NA DONNA 1960-09-06 00:00:00 TS 20.1000 -66.5000 115 941 hurdat_atl main 190 190 O_____________ hurdat_atl AL051960 20.1000 -66.5000 HU 115 941 4 9 298
1960243N10337 1960 62 NA NA DONNA 1960-09-06 03:00:00 TS 20.3352 -66.9925 main 212 212 P_____________ AL051960 20.3352 -66.9925 HU 115 940 4 11 298
1960243N10337 1960 62 NA NA DONNA 1960-09-06 06:00:00 TS 20.6000 -67.5000 115 hurdat_atl main 231 226 I_____________ hurdat_atl AL051960 20.6000 -67.5000 HU 115 940 4 11 303
1960243N10337 1960 62 NA NA DONNA 1960-09-06 09:00:00 TS 20.9149 -67.9299 main 231 224 P_____________ AL051960 20.9149 -67.9299 HU 117 940 4 10 309
1960243N10337 1960 62 NA NA DONNA 1960-09-06 12:00:00 TS 21.2000 -68.3000 120 940 hurdat_atl main 236 232 O_____________ hurdat_atl AL051960 21.2000 -68.3000 HU 120 940 4 8 306
1960243N10337 1960 62 NA NA DONNA 1960-09-06 15:00:00 TS 21.3723 -68.6003 main 245 236 P_____________ AL051960 21.3723 -68.6003 HU 120 940 4 6 298
1960243N10337 1960 62 NA NA DONNA 1960-09-06 18:00:00 TS 21.5000 -68.9000 120 940 hurdat_atl main 241 235 O_____________ hurdat_atl AL051960 21.5000 -68.9000 HU 120 940 4 7 294
1960243N10337 1960 62 NA NA DONNA 1960-09-06 21:00:00 TS 21.6575 -69.2850 main 245 240 P_____________ AL051960 21.6575 -69.2850 HU 122 936 4 8 292
1960243N10337 1960 62 NA NA DONNA 1960-09-07 00:00:00 TS 21.8000 -69.7000 125 932 hurdat_atl main 242 235 O_____________ hurdat_atl AL051960 21.8000 -69.7000 HU 125 932 4 8 289
1960243N10337 1960 62 NA NA DONNA 1960-09-07 03:00:00 TS 21.9149 -70.1001 main 240 238 P_____________ AL051960 21.9149 -70.1001 HU 122 936 4 8 285
1960243N10337 1960 62 NA NA DONNA 1960-09-07 06:00:00 TS 22.0000 -70.5000 120 hurdat_atl main 246 239 I_____________ hurdat_atl AL051960 22.0000 -70.5000 HU 120 940 4 7 282
1960243N10337 1960 62 NA NA DONNA 1960-09-07 09:00:00 TS 22.0648 -70.8850 main 239 202 P_____________ AL051960 22.0648 -70.8850 HU 115 944 4 7 278
1960243N10337 1960 62 NA NA DONNA 1960-09-07 12:00:00 TS 22.1000 -71.3000 110 948 hurdat_atl main 202 167 O_____________ hurdat_atl AL051960 22.1000 -71.3000 HU 110 948 3 8 272
1960243N10337 1960 62 NA NA DONNA 1960-09-07 15:00:00 TS 22.0999 -71.7777 main 159 123 P_____________ AL051960 22.0999 -71.7777 HU 110 947 3 9 270
1960243N10337 1960 62 NA NA DONNA 1960-09-07 18:00:00 TS 22.1000 -72.3000 110 hurdat_atl main 123 102 I_____________ hurdat_atl AL051960 22.1000 -72.3000 HU 110 946 3 10 273
1960243N10337 1960 62 NA NA DONNA 1960-09-07 21:00:00 TS 22.1500 -72.8574 main 112 111 P_____________ AL051960 22.1500 -72.8574 HU 110 945 3 10 276
1960243N10337 1960 62 NA NA DONNA 1960-09-08 00:00:00 TS 22.2000 -73.4000 110 945 hurdat_atl main 113 113 O_____________ hurdat_atl AL051960 22.2000 -73.4000 HU 110 945 3 9 273
1960243N10337 1960 62 NA NA DONNA 1960-09-08 03:00:00 TS 22.1997 -73.8577 main 124 124 P_____________ AL051960 22.1997 -73.8577 HU 107 946 3 8 270
1960243N10337 1960 62 NA NA DONNA 1960-09-08 06:00:00 TS 22.2000 -74.3000 105 947 hurdat_atl main 137 137 O_____________ hurdat_atl AL051960 22.2000 -74.3000 L HU 105 947 3 9 272
1960243N10337 1960 62 NA NA DONNA 1960-09-08 09:00:00 TS 22.2384 -74.8157 main 157 148 P_____________ AL051960 22.2384 -74.8157 HU 102 949 3 9 276
1960243N10337 1960 62 NA NA DONNA 1960-09-08 12:00:00 TS 22.3000 -75.3000 100 951 hurdat_atl main 148 142 O_____________ hurdat_atl AL051960 22.3000 -75.3000 HU 100 951 3 8 280
1960243N10337 1960 62 NA NA DONNA 1960-09-08 15:00:00 TS 22.3841 -75.6694 main 143 140 P_____________ AL051960 22.3841 -75.6694 HU 103 946 3 7 282
1960243N10337 1960 62 NA NA DONNA 1960-09-08 16:00:00 TS 22.4000 -75.8000 105 945 hurdat_atl main 140 129 O_____________ hurdat_atl AL051960 22.4000 -75.8000 L HU 105 945 3 8 272
1960243N10337 1960 62 NA NA DONNA 1960-09-08 18:00:00 TS 22.4000 -76.1000 105 945 hurdat_atl main 129 106 O_____________ hurdat_atl AL051960 22.4000 -76.1000 HU 105 945 3 8 276
1960243N10337 1960 62 NA NA DONNA 1960-09-08 21:00:00 TS 22.4701 -76.5052 main 108 98 P_____________ AL051960 22.4701 -76.5052 HU 107 942 3 8 285
1960243N10337 1960 62 NA NA DONNA 1960-09-09 00:00:00 TS 22.6000 -76.9000 110 939 hurdat_atl main 102 101 O_____________ hurdat_atl AL051960 22.6000 -76.9000 HU 110 939 3 8 289
1960243N10337 1960 62 NA NA DONNA 1960-09-09 03:00:00 TS 22.7424 -77.3425 main 103 91 P_____________ AL051960 22.7424 -77.3425 HU 110 940 3 9 290
1960243N10337 1960 62 NA NA DONNA 1960-09-09 06:00:00 TS 22.9000 -77.8000 110 942 hurdat_atl main 91 78 O_____________ hurdat_atl AL051960 22.9000 -77.8000 HU 110 942 3 9 289
1960243N10337 1960 62 NA NA DONNA 1960-09-09 09:00:00 TS 23.0350 -78.2652 main 78 78 P_____________ AL051960 23.0350 -78.2652 HU 110 942 3 9 290
1960243N10337 1960 62 NA NA DONNA 1960-09-09 12:00:00 TS 23.2000 -78.7000 110 942 hurdat_atl main 100 98 O_____________ hurdat_atl AL051960 23.2000 -78.7000 HU 110 942 3 8 299
1960243N10337 1960 62 NA NA DONNA 1960-09-09 15:00:00 TS 23.4348 -79.0651 main 93 93 P_____________ AL051960 23.4348 -79.0651 HU 110 943 3 8 308
1960243N10337 1960 62 NA NA DONNA 1960-09-09 18:00:00 TS 23.7000 -79.4000 110 944 hurdat_atl main 108 102 O_____________ hurdat_atl AL051960 23.7000 -79.4000 HU 110 944 3 8 309
1960243N10337 1960 62 NA NA DONNA 1960-09-09 21:00:00 TS 23.9499 -79.7501 main 113 105 P_____________ AL051960 23.9499 -79.7501 HU 112 941 3 8 308
1960243N10337 1960 62 NA NA DONNA 1960-09-10 00:00:00 TS 24.2000 -80.1000 115 938 hurdat_atl main 105 78 O_____________ hurdat_atl AL051960 24.2000 -80.1000 HU 115 938 4 8 307
1960243N10337 1960 62 NA NA DONNA 1960-09-10 03:00:00 TS 24.4365 -80.4636 main 78 44 P_____________ AL051960 24.4365 -80.4636 HU 120 934 4 8 308
1960243N10337 1960 62 NA NA DONNA 1960-09-10 06:00:00 TS 24.7000 -80.8000 125 930 hurdat_atl main 45 39 O_____________ hurdat_atl AL051960 24.7000 -80.8000 HU 125 930 4 8 313
1960243N10337 1960 62 NA NA DONNA 1960-09-10 07:00:00 TS 24.8000 -80.9000 125 930 hurdat_atl main 39 11 O_____________ hurdat_atl AL051960 24.8000 -80.9000 L HU 125 930 4 8 319
1960243N10337 1960 62 NA GM DONNA 1960-09-10 09:00:00 TS 24.9861 -81.0752 main 11 0 P_____________ AL051960 24.9861 -81.0752 HU 120 933 4 7 324
1960243N10337 1960 62 NA GM DONNA 1960-09-10 12:00:00 TS 25.3000 -81.3000 115 939 hurdat_atl main 15 15 O_____________ hurdat_atl AL051960 25.3000 -81.3000 HU 115 939 4 8 332
1960243N10337 1960 62 NA GM DONNA 1960-09-10 15:00:00 TS 25.7241 -81.5158 main 20 0 P_____________ AL051960 25.7241 -81.5158 HU 107 941 3 10 336
1960243N10337 1960 62 NA GM DONNA 1960-09-10 16:00:00 TS 25.9000 -81.6000 105 942 hurdat_atl main 0 0 O_____________ hurdat_atl AL051960 25.9000 -81.6000 L HU 105 942 3 13 336
1960243N10337 1960 62 NA NA DONNA 1960-09-10 18:00:00 TS 26.3000 -81.8000 105 945 hurdat_atl main 0 0 O_____________ hurdat_atl AL051960 26.3000 -81.8000 HU 105 945 3 12 342
1960243N10337 1960 62 NA NA DONNA 1960-09-10 21:00:00 TS 26.8232 -81.9278 main 0 0 P_____________ AL051960 26.8232 -81.9278 HU 95 951 2 10 355
1960243N10337 1960 62 NA NA DONNA 1960-09-11 00:00:00 TS 27.3000 -81.9000 85 957 hurdat_atl main 0 0 O_____________ hurdat_atl AL051960 27.3000 -81.9000 HU 85 957 2 10 4
1960243N10337 1960 62 NA NA DONNA 1960-09-11 03:00:00 TS 27.7699 -81.8594 main 0 0 P_____________ AL051960 27.7699 -81.8594 HU 75 960 1 10 10
1960243N10337 1960 62 NA NA DONNA 1960-09-11 06:00:00 TS 28.3000 -81.7000 65 964 hurdat_atl main 0 0 O_____________ hurdat_atl AL051960 28.3000 -81.7000 HU 65 964 1 13 18
1960243N10337 1960 62 NA NA DONNA 1960-09-11 09:00:00 TS 28.9699 -81.4173 main 0 0 P_____________ AL051960 28.9699 -81.4173 HU 70 966 1 15 24
1960243N10337 1960 62 NA NA DONNA 1960-09-11 12:00:00 TS 29.7000 -81.0000 75 968 hurdat_atl main 22 22 O_____________ hurdat_atl AL051960 29.7000 -81.0000 HU 75 968 1 16 29
1960243N10337 1960 62 NA NA DONNA 1960-09-11 15:00:00 TS 30.3621 -80.5156 main 92 92 P_____________ AL051960 30.3621 -80.5156 HU 77 969 1 17 34
1960243N10337 1960 62 NA NA DONNA 1960-09-11 18:00:00 TS 31.1000 -79.9000 80 970 hurdat_atl main 130 108 O_____________ hurdat_atl AL051960 31.1000 -79.9000 HU 80 970 1 20 37
1960243N10337 1960 62 NA NA DONNA 1960-09-11 21:00:00 TS 31.9693 -79.1259 main 107 78 P_____________ AL051960 31.9693 -79.1259 HU 85 964 2 23 36
1960243N10337 1960 62 NA NA DONNA 1960-09-12 00:00:00 TS 33.0000 -78.3000 90 958 hurdat_atl main 86 14 O_____________ hurdat_atl AL051960 33.0000 -78.3000 HU 90 958 2 26 30
1960243N10337 1960 62 NA NA DONNA 1960-09-12 03:00:00 TS 34.2510 -77.5683 main 9 0 P_____________ AL051960 34.2510 -77.5683 HU 90 958 2 27 27
1960243N10337 1960 62 NA NA DONNA 1960-09-12 04:00:00 TS 34.6000 -77.3000 90 958 hurdat_atl main 0 0 O_____________ hurdat_atl AL051960 34.6000 -77.3000 L HU 90 958 2 22 40
1960243N10337 1960 62 NA NA DONNA 1960-09-12 06:00:00 TS 35.1000 -76.7000 85 960 hurdat_atl main 0 0 O_____________ hurdat_atl AL051960 35.1000 -76.7000 HU 85 960 2 23 41
1960243N10337 1960 62 NA NA DONNA 1960-09-12 09:00:00 TS 36.0801 -75.7355 main 0 0 P_____________ AL051960 36.0801 -75.7355 HU 85 959 2 27 35
1960243N10337 1960 62 NA NA DONNA 1960-09-12 12:00:00 TS 37.3000 -74.8000 85 hurdat_atl main 82 64 I_____________ hurdat_atl AL051960 37.3000 -74.8000 HU 85 959 2 28 27
1960243N10337 1960 62 NA NA DONNA 1960-09-12 15:00:00 TS 38.5541 -74.1407 main 75 48 P_____________ AL051960 38.5541 -74.1407 HU 85 959 2 30 23
1960243N10337 1960 62 NA NA DONNA 1960-09-12 18:00:00 TS 40.1000 -73.3000 85 959 hurdat_atl main 58 13 O_____________ hurdat_atl AL051960 40.1000 -73.3000 HU 85 959 2 35 24
1960243N10337 1960 62 NA NA DONNA 1960-09-12 19:00:00 TS 40.7000 -72.9000 85 959 hurdat_atl main 11 0 O_____________ hurdat_atl AL051960 40.7000 -72.9000 L HU 85 959 2 41 30
1960243N10337 1960 62 NA NA DONNA 1960-09-12 20:00:00 TS 41.3000 -72.4000 80 962 hurdat_atl main 0 0 O_____________ hurdat_atl AL051960 41.3000 -72.4000 L HU 80 962 1 38 32
1960243N10337 1960 62 NA NA DONNA 1960-09-12 21:00:00 TS 41.7579 -72.0088 main 0 0 P_____________ AL051960 41.7579 -72.0088 HU 75 963 1 26 31
1960243N10337 1960 62 NA NA DONNA 1960-09-13 00:00:00 TS 42.8000 -71.2000 60 969 hurdat_atl main 0 0 O_____________ hurdat_atl AL051960 42.8000 -71.2000 TS 60 969 0 33 27
1960243N10337 1960 62 NA NA DONNA 1960-09-13 03:00:00 TS 44.6981 -69.9809 main 0 0 P_____________ AL051960 44.6981 -69.9809 TS 60 0 44 25
1960243N10337 1960 62 NA NA DONNA 1960-09-13 06:00:00 ET 46.8000 -68.6000 60 hurdat_atl main 0 0 O_____________ hurdat_atl AL051960 46.8000 -68.6000 EX 60 -4 42 26
1960243N10337 1960 62 NA NA DONNA 1960-09-13 09:00:00 ET 48.4633 -67.3493 main 0 0 P_____________ AL051960 48.4633 -67.3493 EX 60 -4 36 28
1960243N10337 1960 62 NA NA DONNA 1960-09-13 12:00:00 ET 50.0000 -66.0000 60 hurdat_atl main 23 0 O_____________ hurdat_atl AL051960 50.0000 -66.0000 EX 60 -4 36 32
1960243N10337 1960 62 NA NA DONNA 1960-09-13 15:00:00 ET 51.5702 -64.3671 main 0 0 P_____________ AL051960 51.5702 -64.3671 EX 60 -4 38 35
1960243N10337 1960 62 NA NA DONNA 1960-09-13 18:00:00 ET 53.1000 -62.5000 60 hurdat_atl main 0 0 O_____________ hurdat_atl AL051960 53.1000 -62.5000 EX 60 -4 38 38
1960243N10337 1960 62 NA NA DONNA 1960-09-13 21:00:00 ET 54.5946 -60.3972 main 0 0 P_____________ AL051960 54.5946 -60.3972 EX 52 -4 38 41
1960243N10337 1960 62 NA NA DONNA 1960-09-14 00:00:00 ET 56.0000 -58.2000 45 hurdat_atl main 108 108 O_____________ hurdat_atl AL051960 56.0000 -58.2000 EX 45 -4 36 42
1960243N10337 1960 62 NA NA DONNA 1960-09-14 03:00:00 ET 57.2766 -56.0595 main 298 298 P_____________ AL051960 57.2766 -56.0595 EX 42 -4 34 42
1960243N10337 1960 62 NA NA DONNA 1960-09-14 06:00:00 ET 58.5000 -54.0000 40 hurdat_atl main 415 244 O_____________ hurdat_atl AL051960 58.5000 -54.0000 EX 40 -4 32 41
1960243N10337 1960 62 NA NA DONNA 1960-09-14 09:00:00 ET 59.7455 -52.0146 main 240 73 P_____________ AL051960 59.7455 -52.0146 EX 40 -4 32 39
1960243N10337 1960 62 NA NA DONNA 1960-09-14 12:00:00 ET 61.0000 -50.0000 40 hurdat_atl main 62 O_____________ hurdat_atl AL051960 61.0000 -50.0000 EX 40 -4 32 38

About IBTrACS Database

This database is a web-friendly format of International Best Track Archive for Climate Stewardship (IBTrACS), a global best track data archive curated by NOAA dating back to 1842.

Updated: 2021-11-26